Time;durP1;ratioP1;P1;durP2;ratioP2;P2;SDS_P1;SDS_P2;PMS_P1;PMS_P2;Temp;Humidity;BMP_temperature;BMP_pressure;BME280_temperature;BME280_humidity;BME280_pressure;Samples;Min_cycle;Max_cycle;Signal;HPM_P1;HPM_P2
2023/01/13 00:01:18;;;;;;;3.27;0.90;;;;;;;12.40;52.93;97171.19;5053419;28;20441;-71
2023/01/13 00:03:44;;;;;;;1.97;0.90;;;;;;;12.48;52.78;97156.41;5053495;28;20180;-71
2023/01/13 00:06:14;;;;;;;3.20;0.80;;;;;;;12.47;52.68;97165.28;5053064;28;20418;-71
2023/01/13 00:08:40;;;;;;;2.40;0.80;;;;;;;12.49;52.50;97173.81;5053161;28;20241;-71
2023/01/13 00:11:05;;;;;;;2.07;0.90;;;;;;;12.52;52.96;97158.56;5049466;28;20455;-71
2023/01/13 00:13:34;;;;;;;4.07;0.80;;;;;;;12.53;52.79;97154.09;5051268;28;20279;-70
2023/01/13 00:16:02;;;;;;;2.37;1.10;;;;;;;12.59;52.65;97154.25;5052340;28;20189;-70
2023/01/13 00:18:28;;;;;;;3.63;0.80;;;;;;;12.51;52.90;97145.56;5053814;28;20457;-69
2023/01/13 00:21:05;;;;;;;1.70;0.83;;;;;;;12.54;52.69;97155.75;5055097;28;20498;-73
2023/01/13 00:23:32;;;;;;;3.90;1.10;;;;;;;12.59;52.70;97156.88;5052293;28;20182;-71
2023/01/13 00:26:00;;;;;;;2.73;0.80;;;;;;;12.48;52.88;97149.34;5052810;28;20497;-71
2023/01/13 00:28:27;;;;;;;2.30;1.13;;;;;;;12.55;52.48;97141.63;5051764;28;20521;-70
2023/01/13 00:30:52;;;;;;;2.40;0.83;;;;;;;12.52;52.62;97141.94;5051767;28;20934;-70
2023/01/13 00:33:18;;;;;;;3.40;0.90;;;;;;;12.47;52.99;97141.63;5044189;28;20422;-71
2023/01/13 00:35:43;;;;;;;1.50;0.87;;;;;;;12.41;52.84;97141.31;5048517;28;20179;-70
2023/01/13 00:38:09;;;;;;;2.33;0.90;;;;;;;12.50;52.89;97138.66;5052130;28;20227;-70
2023/01/13 00:40:34;;;;;;;2.40;1.03;;;;;;;12.60;52.26;97134.88;5052971;28;20274;-70
2023/01/13 00:45:43;;;;;;;2.83;0.80;;;;;;;12.48;52.56;97124.84;5045396;28;20206;-70
2023/01/13 00:48:09;;;;;;;4.40;1.00;;;;;;;12.54;52.50;97119.75;5051048;28;20470;-70
2023/01/13 00:50:34;;;;;;;1.20;0.87;;;;;;;12.49;52.24;97116.81;5058483;28;20788;-70
2023/01/13 00:53:00;;;;;;;1.40;0.60;;;;;;;12.39;53.04;97110.91;5052422;28;20187;-69
2023/01/13 00:55:26;;;;;;;1.87;0.90;;;;;;;12.36;52.91;97117.31;5052209;28;20187;-70
2023/01/13 00:57:51;;;;;;;1.30;0.80;;;;;;;12.47;52.37;97103.03;5048270;28;20554;-70
2023/01/13 01:00:18;;;;;;;1.00;0.80;;;;;;;12.49;52.50;97105.47;5052021;28;20206;-70
2023/01/13 01:02:43;;;;;;;1.63;0.93;;;;;;;12.54;52.55;97106.59;5049689;28;20214;-70
2023/01/13 01:05:09;;;;;;;3.97;1.30;;;;;;;12.58;52.30;97102.66;5052011;28;20785;-70
2023/01/13 01:07:34;;;;;;;2.60;0.70;;;;;;;12.54;52.14;97096.09;5051968;28;20266;-69
2023/01/13 01:10:00;;;;;;;1.90;0.73;;;;;;;12.68;52.06;97094.59;5053445;28;20182;-69
2023/01/13 01:12:25;;;;;;;1.40;0.67;;;;;;;12.76;51.88;97099.03;5051027;28;20183;-70
2023/01/13 01:14:51;;;;;;;3.50;1.10;;;;;;;12.53;52.33;97096.28;5048709;28;20194;-70
2023/01/13 01:17:16;;;;;;;3.73;0.83;;;;;;;12.60;52.33;97092.81;5051581;28;20214;-69
2023/01/13 01:19:42;;;;;;;1.40;0.70;;;;;;;12.48;52.47;97099.41;5047705;28;20202;-70
2023/01/13 01:22:07;;;;;;;1.53;0.90;;;;;;;12.72;52.16;97093.28;5049849;28;20266;-71
2023/01/13 01:24:33;;;;;;;1.00;0.70;;;;;;;12.79;51.59;97093.41;5055507;28;20273;-70
2023/01/13 01:26:58;;;;;;;2.20;0.80;;;;;;;12.85;51.62;97095.38;5049490;28;20222;-70
2023/01/13 01:29:23;;;;;;;1.43;0.90;;;;;;;12.79;51.72;97111.00;5043462;28;20199;-71
2023/01/13 01:31:49;;;;;;;2.07;0.70;;;;;;;12.63;51.93;97099.53;5050387;28;20277;-69
2023/01/13 01:34:14;;;;;;;3.23;1.00;;;;;;;12.62;52.26;97107.59;5051515;28;20179;-70
2023/01/13 01:36:40;;;;;;;2.00;0.80;;;;;;;12.83;51.67;97091.28;5047825;28;20173;-71
2023/01/13 01:39:06;;;;;;;5.73;0.70;;;;;;;12.84;51.53;97103.44;5049097;28;20674;-69
2023/01/13 01:41:33;;;;;;;2.30;0.70;;;;;;;12.89;51.77;97106.38;5054498;28;20449;-70
2023/01/13 01:44:46;;;;;;;2.20;0.90;;;;;;;12.71;52.79;97104.78;5044599;28;20211;-70
2023/01/13 01:47:13;;;;;;;3.10;1.00;;;;;;;12.55;52.93;97094.31;5045538;28;20434;-70
2023/01/13 01:49:39;;;;;;;1.10;0.70;;;;;;;12.81;52.57;97088.78;5051597;28;20444;-70
2023/01/13 01:52:08;;;;;;;3.70;1.13;;;;;;;12.70;52.86;97079.47;5053206;28;20421;-70
2023/01/13 01:54:51;;;;;;;3.03;1.00;;;;;;;12.63;53.26;97081.13;5045161;28;20422;-69
2023/01/13 01:57:25;;;;;;;1.10;0.70;;;;;;;12.69;53.22;97088.34;5049566;28;20430;-70
2023/01/13 01:59:51;;;;;;;1.53;0.90;;;;;;;12.72;53.40;97085.41;5049753;28;20465;-70
2023/01/13 02:02:16;;;;;;;3.33;1.00;;;;;;;12.70;53.54;97076.03;5049453;28;20430;-70
2023/01/13 02:04:49;;;;;;;2.43;0.87;;;;;;;12.66;53.87;97080.00;5050083;28;20186;-70
2023/01/13 02:07:20;;;;;;;1.47;0.80;;;;;;;12.66;53.79;97080.81;5048981;28;20182;-70
2023/01/13 02:09:46;;;;;;;5.23;1.20;;;;;;;12.62;53.73;97083.94;5050114;28;20441;-70
2023/01/13 02:12:29;;;;;;;2.00;1.03;;;;;;;12.65;53.48;97079.16;5050771;28;20437;-70
2023/01/13 02:15:15;;;;;;;2.40;0.80;;;;;;;12.73;53.38;97086.22;5044966;28;20857;-70
2023/01/13 02:17:56;;;;;;;2.10;0.93;;;;;;;12.57;53.61;97080.00;5038555;28;20430;-71
2023/01/13 02:20:55;;;;;;;1.33;0.80;;;;;;;12.64;53.45;97074.06;5057334;28;20903;-71
2023/01/13 02:26:49;;;;;;;2.80;0.90;;;;;;;12.78;53.31;97072.53;5050523;28;20509;-71
2023/01/13 02:32:42;;;;;;;1.40;0.77;;;;;;;12.82;52.70;97055.44;5046481;28;20433;-70
2023/01/13 02:35:24;;;;;;;5.30;0.93;;;;;;;12.71;52.93;97041.69;5048984;28;20430;-70
2023/01/13 02:37:50;;;;;;;1.80;1.10;;;;;;;12.67;53.00;97042.16;5049106;28;20952;-70
2023/01/13 02:40:23;;;;;;;1.57;0.70;;;;;;;12.46;53.58;97042.75;5055118;28;20465;-71
2023/01/13 02:45:50;;;;;;;2.90;0.70;;;;;;;12.46;53.48;97045.38;5050408;28;20765;-70
2023/01/13 02:48:16;;;;;;;2.17;1.10;;;;;;;12.49;53.83;97037.13;5048559;28;20813;-70
2023/01/13 02:50:47;;;;;;;1.70;0.90;;;;;;;12.57;53.26;97042.38;5050597;28;20929;-71
2023/01/13 02:53:33;;;;;;;2.37;1.03;;;;;;;12.43;53.85;97039.47;5049254;28;20428;-71
2023/01/13 02:56:00;;;;;;;4.87;1.00;;;;;;;12.39;53.85;97043.41;5044189;28;20434;-70
2023/01/13 02:58:27;;;;;;;2.13;0.80;;;;;;;12.40;54.41;97031.91;5052700;28;20530;-71
2023/01/13 03:00:53;;;;;;;0.83;0.67;;;;;;;12.52;53.91;97028.91;5053277;28;20429;-70
2023/01/13 03:03:18;;;;;;;3.83;1.00;;;;;;;12.44;54.21;97020.06;5054183;28;20485;-70
2023/01/13 03:05:46;;;;;;;3.63;1.20;;;;;;;12.34;54.30;97022.09;5054378;28;20274;-71
2023/01/13 03:08:18;;;;;;;3.37;0.87;;;;;;;12.55;53.99;97020.69;5054658;28;20213;-72
2023/01/13 03:10:58;;;;;;;3.37;0.90;;;;;;;12.59;53.90;97007.03;5051100;28;20434;-71
2023/01/13 03:13:23;;;;;;;1.47;0.83;;;;;;;12.69;53.83;97027.03;5050856;28;20428;-72
2023/01/13 03:16:04;;;;;;;3.47;0.97;;;;;;;12.71;53.73;97023.28;5053921;28;20449;-70
2023/01/13 03:18:56;;;;;;;1.70;0.90;;;;;;;12.63;53.98;97027.75;5053698;28;20215;-70
2023/01/13 03:21:45;;;;;;;1.90;0.80;;;;;;;12.60;53.77;97018.41;5052808;28;20433;-70
2023/01/13 03:24:39;;;;;;;3.83;0.83;;;;;;;12.57;53.78;97030.03;5054135;28;20425;-72
2023/01/13 03:27:20;;;;;;;1.63;0.80;;;;;;;12.65;53.64;97034.47;5052478;28;20430;-70
2023/01/13 03:29:58;;;;;;;2.60;0.87;;;;;;;12.42;54.01;97027.31;5047265;28;20433;-70
2023/01/13 03:32:27;;;;;;;2.50;0.90;;;;;;;12.66;53.58;97033.47;5052159;28;20448;-70
2023/01/13 03:34:58;;;;;;;1.93;1.00;;;;;;;12.53;53.91;97027.94;5052572;28;20421;-70
2023/01/13 03:37:29;;;;;;;3.53;0.90;;;;;;;12.55;54.23;97018.06;5048884;28;20430;-71
2023/01/13 03:40:09;;;;;;;3.23;1.07;;;;;;;12.61;53.96;97027.88;5051276;28;20462;-71
2023/01/13 03:42:36;;;;;;;2.40;0.70;;;;;;;12.69;53.72;97020.00;5032924;28;20429;-70
2023/01/13 03:45:02;;;;;;;2.33;0.70;;;;;;;12.61;53.89;97004.22;5052129;28;20426;-71
2023/01/13 03:47:47;;;;;;;7.47;1.30;;;;;;;12.58;54.23;97008.03;5053246;28;20833;-71
2023/01/13 03:50:22;;;;;;;3.23;0.83;;;;;;;12.69;53.67;96996.34;5061074;28;20661;-71
2023/01/13 03:52:49;;;;;;;1.93;0.83;;;;;;;12.77;53.63;96999.91;5052452;28;20955;-71
2023/01/13 03:55:17;;;;;;;1.63;0.80;;;;;;;12.48;54.21;96998.69;5053179;28;20519;-71
2023/01/13 03:57:51;;;;;;;2.10;0.70;;;;;;;12.56;54.18;97004.75;5053225;28;20465;-70
2023/01/13 04:00:18;;;;;;;1.10;0.90;;;;;;;12.64;54.16;97003.09;5051368;28;20464;-70
2023/01/13 04:02:49;;;;;;;4.57;1.10;;;;;;;12.65;53.95;96988.97;5052541;28;20429;-70
2023/01/13 04:05:15;;;;;;;3.57;1.00;;;;;;;12.66;54.15;96987.97;5053022;28;20422;-70
2023/01/13 04:07:45;;;;;;;3.30;0.90;;;;;;;12.61;54.30;96991.09;5052153;28;20426;-69
2023/01/13 04:10:11;;;;;;;1.90;0.70;;;;;;;12.54;54.66;96972.53;5049591;28;20425;-68
2023/01/13 04:12:59;;;;;;;1.43;0.77;;;;;;;12.53;54.74;96985.88;5056006;28;20413;-69
2023/01/13 04:15:26;;;;;;;1.50;0.90;;;;;;;12.52;54.53;96974.56;5046621;28;20434;-69
2023/01/13 04:17:52;;;;;;;1.47;0.70;;;;;;;12.51;54.58;96961.56;5053025;28;20433;-68
2023/01/13 04:20:18;;;;;;;1.30;0.87;;;;;;;12.49;54.77;96966.16;5056621;28;20457;-70
2023/01/13 04:22:43;;;;;;;1.20;0.90;;;;;;;12.48;54.52;96962.72;5053267;28;20827;-69
2023/01/13 04:25:10;;;;;;;2.43;0.70;;;;;;;12.53;54.55;96951.69;5052425;28;20187;-69
2023/01/13 04:27:35;;;;;;;1.33;0.70;;;;;;;12.57;54.31;96955.63;5052512;28;20247;-69
2023/01/13 04:30:01;;;;;;;3.23;0.90;;;;;;;12.35;54.90;96950.13;5046541;28;20442;-68
2023/01/13 04:32:26;;;;;;;2.13;0.70;;;;;;;12.52;54.57;96957.94;5052224;28;20198;-69
2023/01/13 04:34:51;;;;;;;1.67;0.80;;;;;;;12.57;54.37;96956.44;5052777;28;20664;-69
2023/01/13 04:37:17;;;;;;;4.13;0.80;;;;;;;12.43;54.79;96968.50;5052286;28;20273;-70
2023/01/13 04:39:42;;;;;;;1.63;0.70;;;;;;;12.31;55.25;96983.00;5052636;28;20294;-71
2023/01/13 04:42:08;;;;;;;1.00;0.70;;;;;;;12.45;54.96;96963.06;5054952;28;20182;-71
2023/01/13 04:44:34;;;;;;;0.93;0.67;;;;;;;12.55;54.00;96953.16;5052304;28;20175;-71
2023/01/13 04:47:00;;;;;;;2.50;0.80;;;;;;;12.69;53.92;96959.53;5054779;28;20187;-71
2023/01/13 04:49:26;;;;;;;3.33;0.70;;;;;;;12.62;54.11;96940.16;5050404;28;20988;-71
2023/01/13 04:51:51;;;;;;;2.80;0.80;;;;;;;12.69;54.02;96943.75;5050439;28;20421;-71
2023/01/13 04:54:17;;;;;;;1.10;0.60;;;;;;;12.53;54.39;96943.81;5041312;28;20285;-70
2023/01/13 04:56:42;;;;;;;1.20;0.60;;;;;;;12.53;54.18;96943.81;5049400;28;20215;-71
2023/01/13 04:59:09;;;;;;;1.20;0.70;;;;;;;12.53;54.06;96943.81;5054187;28;20210;-70
2023/01/13 05:01:35;;;;;;;0.90;0.60;;;;;;;12.59;53.85;96936.06;5061514;28;20239;-69
2023/01/13 05:04:01;;;;;;;2.00;0.57;;;;;;;12.71;53.96;96939.13;5058389;28;20937;-70
2023/01/13 05:06:26;;;;;;;1.47;0.77;;;;;;;12.69;54.11;96930.59;5062749;28;20867;-71
2023/01/13 05:08:52;;;;;;;2.00;0.70;;;;;;;12.68;53.65;96936.84;5063820;28;20335;-70
2023/01/13 05:17:05;;;;;;;2.37;0.60;;;;;;;12.64;53.87;96943.44;5055850;28;20431;-70
2023/01/13 05:19:33;;;;;;;2.20;0.70;;;;;;;12.51;54.11;96945.78;5067174;28;21022;-70
2023/01/13 05:27:28;;;;;;;1.27;0.70;;;;;;;12.61;54.00;96943.75;5060233;28;20416;-70
2023/01/13 05:29:53;;;;;;;1.10;0.70;;;;;;;12.38;54.71;96944.53;5055418;28;20441;-71
2023/01/13 05:32:20;;;;;;;1.97;1.00;;;;;;;12.60;53.91;96950.03;5045624;28;20441;-70
2023/01/13 05:34:45;;;;;;;1.07;0.60;;;;;;;12.64;53.93;96967.09;5055778;28;20305;-70
2023/01/13 05:37:12;;;;;;;2.60;0.70;;;;;;;12.55;53.91;96960.25;5060382;28;20430;-70
2023/01/13 05:45:06;;;;;;;2.23;0.63;;;;;;;12.44;54.31;96945.66;5064187;28;20429;-70
2023/01/13 05:47:32;;;;;;;2.57;0.80;;;;;;;12.47;54.58;96939.25;5050870;28;20967;-70
2023/01/13 05:49:57;;;;;;;1.47;0.80;;;;;;;12.53;54.39;96946.44;5057617;28;20536;-70
2023/01/13 05:52:22;;;;;;;2.13;0.70;;;;;;;12.53;53.99;96930.66;5061158;28;20270;-70
2023/01/13 05:54:48;;;;;;;1.80;0.70;;;;;;;12.46;54.65;96937.63;5056929;28;20581;-70
2023/01/13 05:57:13;;;;;;;1.90;1.40;;;;;;;12.29;54.83;96927.16;5054876;28;20211;-71
2023/01/13 05:59:39;;;;;;;1.47;0.87;;;;;;;12.33;54.89;96931.09;5053312;28;20249;-70
2023/01/13 06:02:04;;;;;;;1.10;0.67;;;;;;;12.48;54.70;96925.09;5051107;28;20218;-69
2023/01/13 06:04:30;;;;;;;0.90;0.60;;;;;;;12.48;54.56;96928.56;5051054;28;20216;-69
2023/01/13 06:06:55;;;;;;;1.00;0.70;;;;;;;12.37;54.83;96931.56;5050346;28;20187;-70
2023/01/13 06:09:21;;;;;;;1.87;0.70;;;;;;;12.34;54.79;96927.47;5056815;28;20205;-69
2023/01/13 06:11:47;;;;;;;1.53;0.70;;;;;;;12.50;54.50;96928.38;5058636;28;20187;-70
2023/01/13 06:14:13;;;;;;;0.90;0.60;;;;;;;12.48;54.57;96928.56;5052030;28;20471;-71
2023/01/13 06:16:38;;;;;;;1.43;0.60;;;;;;;12.57;54.18;96931.97;5058757;28;20413;-69
2023/01/13 06:19:07;;;;;;;2.90;1.27;;;;;;;12.51;54.44;96936.09;5059421;28;20260;-70
2023/01/13 06:21:33;;;;;;;2.03;0.70;;;;;;;12.52;54.63;96931.66;5054799;28;20902;-70
2023/01/13 06:23:59;;;;;;;1.43;0.83;;;;;;;12.56;54.62;96938.22;5053927;28;20426;-70
2023/01/13 06:26:26;;;;;;;0.90;0.60;;;;;;;12.56;54.47;96932.97;5056657;28;21035;-70
2023/01/13 06:28:52;;;;;;;1.70;0.70;;;;;;;12.33;55.00;96931.09;5058552;28;20222;-70
2023/01/13 06:31:18;;;;;;;2.17;0.70;;;;;;;12.43;54.95;96939.59;5063068;28;20467;-70
2023/01/13 06:33:52;;;;;;;1.90;1.00;;;;;;;12.35;55.41;96952.75;5049201;28;20186;-71
2023/01/13 06:36:28;;;;;;;2.27;0.90;;;;;;;12.38;55.38;96941.91;5054106;28;20428;-70
2023/01/13 06:38:56;;;;;;;2.60;0.83;;;;;;;12.45;55.08;96949.91;5063021;28;20460;-69
2023/01/13 06:43:13;;;;;;;2.40;0.90;;;;;;;12.32;55.56;96945.22;5055118;28;20421;-71
2023/01/13 06:44:08;;;;;;;4.53;0.80;;;;;;;12.23;55.98;96947.03;5066166;28;20468;-70
2023/01/13 06:46:34;;;;;;;0.87;0.60;;;;;;;12.39;55.67;96932.22;5045427;28;20461;-70
2023/01/13 06:48:59;;;;;;;4.40;0.80;;;;;;;12.46;55.19;96938.41;5060428;28;20198;-70
2023/01/13 06:51:25;;;;;;;2.20;0.80;;;;;;;12.44;55.54;96930.72;5062069;28;22303;-70
2023/01/13 06:53:50;;;;;;;1.33;0.60;;;;;;;12.38;55.79;96934.00;5048392;28;20266;-70
2023/01/13 06:56:16;;;;;;;0.90;0.70;;;;;;;12.19;56.19;96942.31;5035561;28;20290;-71
2023/01/13 06:58:42;;;;;;;1.67;0.70;;;;;;;12.48;55.41;96944.34;5049836;28;20210;-70
2023/01/13 07:01:07;;;;;;;1.10;0.60;;;;;;;12.34;55.67;96940.63;5049163;28;20186;-69
2023/01/13 07:03:32;;;;;;;1.67;0.70;;;;;;;12.44;55.67;96937.75;5047627;28;20181;-71
2023/01/13 07:05:59;;;;;;;2.40;0.80;;;;;;;12.37;55.54;96945.50;5056606;28;20183;-71
2023/01/13 07:08:24;;;;;;;0.90;0.60;;;;;;;12.20;56.22;96939.50;5050363;28;20195;-70
2023/01/13 07:10:51;;;;;;;1.30;0.70;;;;;;;12.27;55.76;96937.84;5049985;28;20516;-69
2023/01/13 07:16:04;;;;;;;4.73;0.67;;;;;;;12.40;55.53;96942.56;5050127;28;20477;-71
2023/01/13 07:18:31;;;;;;;3.13;0.70;;;;;;;12.47;55.52;96939.25;5049871;28;20548;-70
2023/01/13 07:20:59;;;;;;;7.47;0.90;;;;;;;12.40;55.65;96933.88;5052140;28;21148;-71
2023/01/13 07:23:26;;;;;;;1.00;0.73;;;;;;;12.39;55.55;96932.22;5050188;28;20464;-71
2023/01/13 07:25:54;;;;;;;1.20;0.60;;;;;;;12.37;55.75;96927.13;5048334;28;20512;-71
2023/01/13 07:28:19;;;;;;;1.17;0.70;;;;;;;12.25;55.82;96938.97;5045441;28;20456;-71
2023/01/13 07:30:45;;;;;;;1.40;0.50;;;;;;;12.38;55.56;96934.00;5048522;28;20425;-70
2023/01/13 07:33:10;;;;;;;1.20;0.80;;;;;;;12.31;55.92;96950.63;5047783;28;20207;-70
2023/01/13 07:35:36;;;;;;;0.90;0.57;;;;;;;12.40;55.47;96953.06;5047316;28;20182;-71
2023/01/13 07:38:01;;;;;;;1.43;0.60;;;;;;;12.30;55.81;96960.31;5049690;28;20241;-70
2023/01/13 07:40:27;;;;;;;1.83;0.77;;;;;;;12.47;55.36;96955.03;5049841;28;20735;-71
2023/01/13 07:45:36;;;;;;;1.20;0.80;;;;;;;12.24;56.16;96953.94;5053744;28;20217;-71
2023/01/13 07:48:02;;;;;;;0.90;0.60;;;;;;;12.11;56.54;96936.06;5053290;28;20869;-70
2023/01/13 07:50:27;;;;;;;1.40;0.60;;;;;;;12.33;56.18;96967.03;5059865;28;20183;-71
2023/01/13 07:52:56;;;;;;;1.00;0.70;;;;;;;12.35;55.80;96952.75;5053655;28;20179;-70
2023/01/13 07:55:21;;;;;;;1.20;0.80;;;;;;;12.58;55.59;96936.25;5053026;28;20187;-70
2023/01/13 07:57:47;;;;;;;1.93;0.70;;;;;;;12.54;55.51;96946.25;5043830;28;20425;-71
2023/01/13 08:00:13;;;;;;;1.47;1.00;;;;;;;12.59;55.32;96953.66;5046510;28;20215;-70
2023/01/13 08:02:39;;;;;;;1.40;0.80;;;;;;;12.64;55.27;96958.41;5046267;28;20292;-70
2023/01/13 08:05:04;;;;;;;3.10;0.93;;;;;;;12.66;55.13;96959.84;5046008;28;20438;-70
2023/01/13 08:07:30;;;;;;;1.67;0.73;;;;;;;12.68;55.19;96962.31;5039254;28;20191;-72
2023/01/13 08:09:55;;;;;;;2.17;1.10;;;;;;;12.80;54.81;96975.91;5038255;28;20262;-70
2023/01/13 08:15:05;;;;;;;1.53;0.80;;;;;;;12.77;55.20;96986.75;5038741;28;20649;-70
2023/01/13 08:17:31;;;;;;;2.70;0.70;;;;;;;12.77;55.47;96970.97;5046024;28;20417;-70
2023/01/13 08:19:56;;;;;;;1.23;0.60;;;;;;;12.76;56.33;96978.06;5051942;28;20843;-71
2023/01/13 08:22:22;;;;;;;1.67;0.70;;;;;;;12.86;56.39;96983.09;5039699;28;20211;-71
2023/01/13 08:24:47;;;;;;;1.50;0.60;;;;;;;12.88;56.47;96975.84;5045962;28;20202;-70
2023/01/13 08:27:13;;;;;;;1.20;0.60;;;;;;;13.01;56.49;96986.63;5047536;28;20183;-72
2023/01/13 08:29:38;;;;;;;2.40;0.77;;;;;;;12.97;56.04;96990.63;5046939;28;20257;-72
2023/01/13 08:32:04;;;;;;;0.80;0.57;;;;;;;12.88;57.05;97004.78;5051980;28;20199;-71
2023/01/13 08:34:29;;;;;;;1.60;0.63;;;;;;;12.92;57.57;97006.09;5050194;28;20190;-72
2023/01/13 08:36:55;;;;;;;0.97;0.57;;;;;;;12.77;58.51;97006.00;5051362;28;20639;-72
2023/01/13 08:39:20;;;;;;;1.73;0.70;;;;;;;12.60;60.34;96997.38;5051972;28;20219;-71
2023/01/13 08:41:54;;;;;;;0.93;0.50;;;;;;;12.49;60.87;97018.72;5055116;28;20267;-70
2023/01/13 08:44:23;;;;;;;1.33;0.70;;;;;;;12.42;61.72;97026.47;5050882;28;20269;-72
2023/01/13 08:46:49;;;;;;;1.20;0.70;;;;;;;12.43;61.64;97034.19;5052048;28;20433;-71
2023/01/13 08:49:15;;;;;;;0.80;0.60;;;;;;;12.53;61.43;97034.03;5052451;28;20812;-71
2023/01/13 08:51:40;;;;;;;0.87;0.70;;;;;;;12.58;61.48;97042.19;5052283;28;20183;-71
2023/01/13 08:54:06;;;;;;;1.47;0.70;;;;;;;12.50;61.98;97065.06;5051947;28;20939;-71
2023/01/13 08:56:31;;;;;;;1.73;0.70;;;;;;;12.49;61.84;97053.72;5051071;28;20183;-71
2023/01/13 08:58:57;;;;;;;1.87;0.70;;;;;;;12.59;62.22;97058.81;5052300;28;20241;-71
2023/01/13 09:01:23;;;;;;;1.40;0.70;;;;;;;12.57;62.23;97076.56;5052019;28;20210;-72
2023/01/13 09:03:48;;;;;;;1.17;0.73;;;;;;;12.64;61.77;97079.34;5051845;28;20602;-71
2023/01/13 09:06:14;;;;;;;1.63;1.00;;;;;;;12.57;61.87;97095.75;5051851;28;20673;-71
2023/01/13 09:08:39;;;;;;;0.90;0.67;;;;;;;12.58;62.10;97093.97;5052176;28;20199;-71
2023/01/13 09:13:10;;;;;;;0.97;0.60;;;;;;;12.52;61.72;97099.88;5052356;28;20689;-71
2023/01/13 09:13:50;;;;;;;1.53;0.80;;;;;;;12.51;61.64;97095.63;5047420;28;20198;-71
2023/01/13 09:16:16;;;;;;;1.40;0.90;;;;;;;12.50;62.00;97093.97;5053948;28;20794;-70
2023/01/13 09:18:41;;;;;;;1.00;0.70;;;;;;;12.54;61.73;97093.47;5044764;28;20215;-73
2023/01/13 09:21:09;;;;;;;1.20;0.70;;;;;;;12.67;61.70;97090.34;5048412;28;20195;-73
2023/01/13 09:23:34;;;;;;;3.10;0.83;;;;;;;12.88;61.72;97102.09;5048360;28;20179;-72
2023/01/13 09:26:00;;;;;;;2.83;0.60;;;;;;;13.05;60.66;97110.75;5048872;28;20787;-71
2023/01/13 09:28:25;;;;;;;1.10;0.63;;;;;;;13.18;60.06;97118.09;5050894;28;20613;-71
2023/01/13 09:30:51;;;;;;;1.57;0.60;;;;;;;13.25;59.98;97103.25;5052064;28;20258;-71
2023/01/13 09:36:00;;;;;;;1.63;0.60;;;;;;;13.36;59.21;97121.31;5050708;28;20194;-69
2023/01/13 09:38:26;;;;;;;1.37;0.70;;;;;;;13.41;59.29;97117.38;5051135;28;20477;-70
2023/01/13 09:40:51;;;;;;;1.20;0.70;;;;;;;13.40;58.78;97118.38;5052567;28;20183;-71
2023/01/13 09:49:03;;;;;;;0.90;0.60;;;;;;;13.21;58.48;97115.16;5046550;28;20805;-70
2023/01/13 09:51:44;;;;;;;0.80;0.50;;;;;;;13.18;58.48;97123.38;5051345;28;20515;-70
2023/01/13 09:54:25;;;;;;;0.90;0.60;;;;;;;13.04;57.22;97125.72;5049694;28;20417;-70
2023/01/13 09:56:50;;;;;;;0.90;0.60;;;;;;;13.04;56.87;97128.34;5051071;28;20480;-70
2023/01/13 09:59:16;;;;;;;1.73;0.60;;;;;;;12.88;56.82;97137.13;5051011;28;20485;-69
2023/01/13 10:01:53;;;;;;;0.90;0.60;;;;;;;12.84;57.15;97137.63;5051173;28;20182;-70
2023/01/13 10:04:18;;;;;;;2.10;0.60;;;;;;;12.80;57.28;97149.47;5044594;28;20191;-71
2023/01/13 10:06:47;;;;;;;1.10;0.90;;;;;;;12.70;57.96;97150.47;5040899;28;20433;-71
2023/01/13 10:09:20;;;;;;;1.13;0.60;;;;;;;12.62;57.20;97137.31;5049247;28;20215;-72
2023/01/13 10:14:36;;;;;;;1.47;0.80;;;;;;;12.67;57.46;97149.97;5050256;28;20426;-71
2023/01/13 10:17:11;;;;;;;1.43;0.53;;;;;;;12.61;57.67;97138.31;5050699;28;20778;-73
2023/01/13 10:19:47;;;;;;;2.17;0.60;;;;;;;12.57;57.66;97142.28;5043743;28;20499;-73
2023/01/13 10:22:40;;;;;;;1.17;0.70;;;;;;;12.48;57.72;97151.13;5049607;28;20425;-72
2023/01/13 10:25:19;;;;;;;0.90;0.50;;;;;;;12.66;58.21;97146.53;5046795;28;20513;-72
2023/01/13 10:27:48;;;;;;;1.83;0.80;;;;;;;12.88;57.75;97133.66;5034636;28;20495;-72
2023/01/13 10:30:18;;;;;;;1.87;0.70;;;;;;;13.03;57.56;97134.59;5031457;28;20434;-74
2023/01/13 10:32:54;;;;;;;1.03;0.70;;;;;;;13.19;57.25;97144.25;5033233;28;20453;-73
2023/01/13 10:35:58;;;;;;;1.27;0.70;;;;;;;13.87;55.80;97141.13;5034539;28;20742;-74
2023/01/13 10:38:29;;;;;;;2.13;0.60;;;;;;;14.29;55.01;97139.84;5033031;28;20819;-73
2023/01/13 10:41:00;;;;;;;1.10;0.70;;;;;;;14.25;53.47;97141.19;5032625;28;20419;-72
2023/01/13 10:43:27;;;;;;;1.20;0.77;;;;;;;14.29;53.65;97144.31;5033908;28;20423;-75
2023/01/13 10:46:09;;;;;;;1.20;0.70;;;;;;;14.13;53.31;97147.88;5037100;28;20427;-73
2023/01/13 10:48:57;;;;;;;1.20;0.50;;;;;;;13.82;53.71;97156.66;5042733;28;20446;-73
2023/01/13 10:51:24;;;;;;;1.87;0.50;;;;;;;13.69;54.62;97161.66;5034303;28;20425;-73
2023/01/13 10:53:51;;;;;;;1.67;0.60;;;;;;;13.40;55.24;97168.38;5034517;28;20438;-73
2023/01/13 10:56:18;;;;;;;1.40;0.60;;;;;;;13.29;56.13;97164.28;5033708;28;20434;-70
2023/01/13 10:58:44;;;;;;;2.07;0.80;;;;;;;13.17;56.07;97171.72;5035707;28;20466;-71
2023/01/13 11:01:19;;;;;;;1.43;0.60;;;;;;;13.01;56.42;97189.19;5038167;28;20422;-72
2023/01/13 11:03:46;;;;;;;2.10;0.60;;;;;;;12.89;56.63;97193.16;5038970;28;20222;-73
2023/01/13 11:06:38;;;;;;;0.90;0.50;;;;;;;12.72;56.70;97185.31;5043818;28;20424;-73
2023/01/13 11:09:18;;;;;;;1.43;0.70;;;;;;;12.65;57.25;97181.69;5038847;28;20520;-71
2023/01/13 11:11:43;;;;;;;1.37;0.60;;;;;;;12.64;57.25;97176.63;5039476;28;20461;-73
2023/01/13 11:17:28;;;;;;;0.97;0.67;;;;;;;12.49;56.81;97190.41;5041015;28;20178;-72
2023/01/13 11:20:03;;;;;;;2.07;0.67;;;;;;;12.42;57.29;97192.03;5046192;28;20464;-73
2023/01/13 11:22:33;;;;;;;0.97;0.60;;;;;;;12.44;56.75;97204.06;5045888;28;20484;-73
2023/01/13 11:25:01;;;;;;;0.90;0.50;;;;;;;12.31;56.74;97198.47;5048608;28;20921;-77
2023/01/13 11:27:26;;;;;;;1.30;0.70;;;;;;;12.29;56.76;97210.94;5043219;28;20430;-73
2023/01/13 11:30:20;;;;;;;3.53;0.90;;;;;;;12.17;57.40;97223.56;5051058;28;20946;-71
2023/01/13 11:33:12;;;;;;;5.33;0.90;;;;;;;11.97;57.85;97223.84;5051335;28;20191;-73
2023/01/13 11:35:45;;;;;;;2.90;0.60;;;;;;;11.83;57.14;97222.66;5050210;28;20529;-72
2023/01/13 11:38:19;;;;;;;0.90;0.60;;;;;;;11.87;57.41;97215.28;5049760;28;20421;-72
2023/01/13 11:40:49;;;;;;;0.90;0.50;;;;;;;11.87;57.86;97203.94;5045205;28;20425;-73
2023/01/13 11:43:38;;;;;;;2.07;0.60;;;;;;;11.83;57.50;97209.53;5041660;28;20434;-73
2023/01/13 11:46:04;;;;;;;0.87;0.50;;;;;;;11.84;57.37;97203.25;5044049;28;20429;-72
2023/01/13 11:48:31;;;;;;;1.33;0.60;;;;;;;11.80;57.42;97209.84;5044486;28;20536;-72
2023/01/13 11:51:12;;;;;;;1.77;0.80;;;;;;;11.70;57.73;97205.69;5042059;28;20461;-71
2023/01/13 11:54:05;;;;;;;2.90;0.80;;;;;;;11.60;56.94;97197.94;5043310;28;20426;-72
2023/01/13 11:56:58;;;;;;;1.20;0.70;;;;;;;11.26;56.92;97214.53;5044833;28;20501;-72
2023/01/13 11:59:31;;;;;;;0.90;0.60;;;;;;;11.56;56.83;97200.06;5035832;28;20836;-71
2023/01/13 12:02:17;;;;;;;2.87;0.70;;;;;;;11.78;56.35;97201.31;5043883;28;20442;-70
2023/01/13 12:05:02;;;;;;;1.57;0.80;;;;;;;11.87;56.18;97202.16;5045308;28;20793;-71
2023/01/13 12:07:58;;;;;;;1.53;1.10;;;;;;;12.07;56.03;97197.47;5040792;28;20421;-70
2023/01/13 12:10:39;;;;;;;2.40;0.90;;;;;;;11.83;56.13;97185.91;5046235;28;20828;-71
2023/01/13 12:13:13;;;;;;;2.33;1.10;;;;;;;11.96;55.58;97192.50;5043039;28;20920;-70
2023/01/13 12:15:53;;;;;;;2.70;0.80;;;;;;;11.81;55.41;97182.59;5042987;28;20434;-70
2023/01/13 12:18:39;;;;;;;2.00;1.10;;;;;;;12.08;55.46;97193.84;5038142;28;20454;-71
2023/01/13 12:21:17;;;;;;;3.57;1.00;;;;;;;12.36;54.62;97204.03;5038687;28;20557;-70
2023/01/13 12:23:50;;;;;;;5.23;0.80;;;;;;;12.26;54.28;97200.75;5040216;28;20935;-71
2023/01/13 12:26:15;;;;;;;3.67;1.20;;;;;;;12.46;53.44;97197.81;5045322;28;20429;-69
2023/01/13 12:28:53;;;;;;;1.27;0.90;;;;;;;12.83;53.43;97189.41;5044631;28;20945;-71
2023/01/13 12:31:20;;;;;;;2.80;1.20;;;;;;;12.97;52.46;97193.16;5052261;28;20195;-70
2023/01/13 12:34:18;;;;;;;1.50;0.97;;;;;;;13.34;52.36;97194.38;5051305;28;20504;-70
2023/01/13 12:37:14;;;;;;;4.07;1.10;;;;;;;13.59;51.31;97206.63;5042941;28;20859;-70
2023/01/13 12:39:57;;;;;;;3.87;0.90;;;;;;;13.71;49.48;97212.34;5048186;28;20843;-70